createdAt,value
2023-03-05T00:00:45.784Z,7.33
2023-03-05T00:05:47.245Z,7.38
2023-03-05T00:10:56.165Z,6.95
2023-03-05T00:15:57.705Z,6.99
2023-03-05T00:20:59.267Z,6.89
2023-03-05T00:26:01.983Z,6.98
2023-03-05T00:31:03.525Z,6.84
2023-03-05T00:36:06.240Z,6.89
2023-03-05T00:41:08.275Z,6.81
2023-03-05T00:46:09.804Z,7.13
2023-03-05T00:51:11.372Z,7.18
2023-03-05T00:56:12.840Z,7.21
2023-03-05T01:01:14.311Z,7.32
2023-03-05T01:06:16.976Z,7.23
2023-03-05T01:11:18.546Z,7.39
2023-03-05T01:16:20.064Z,7.30
2023-03-05T01:21:22.014Z,7.34
2023-03-05T01:26:23.571Z,7.28
2023-03-05T01:31:25.134Z,6.81
2023-03-05T01:36:26.629Z,6.81
2023-03-05T01:41:28.090Z,6.81
2023-03-05T01:46:36.522Z,6.58
2023-03-05T01:51:48.201Z,7.08
2023-03-05T01:56:50.249Z,7.05
2023-03-05T02:01:53.222Z,7.26
2023-03-05T02:06:54.683Z,6.93
2023-03-05T02:11:56.197Z,6.95
2023-03-05T02:16:57.662Z,7.07
2023-03-05T02:21:59.176Z,7.22
2023-03-05T02:27:00.895Z,7.13
2023-03-05T02:32:02.466Z,7.01
2023-03-05T02:37:04.655Z,7.15
2023-03-05T02:42:06.653Z,7.00
2023-03-05T02:47:08.114Z,7.09
2023-03-05T02:52:09.592Z,7.18
2023-03-05T02:57:11.131Z,7.33
2023-03-05T03:02:12.678Z,7.75
2023-03-05T03:07:14.296Z,7.30
2023-03-05T03:12:15.751Z,6.98
2023-03-05T03:17:17.518Z,6.56
2023-03-05T03:22:19.130Z,6.73
2023-03-05T03:27:20.608Z,6.56
2023-03-05T03:32:22.098Z,6.29
2023-03-05T03:37:23.559Z,6.40
2023-03-05T03:42:25.186Z,6.63
2023-03-05T03:47:26.647Z,6.80
2023-03-05T03:52:28.135Z,7.03
2023-03-05T03:57:29.963Z,6.94
2023-03-05T04:02:31.425Z,6.93
2023-03-05T04:07:32.906Z,7.06
2023-03-05T04:12:34.368Z,6.92
2023-03-05T04:17:35.835Z,6.93
2023-03-05T04:22:37.480Z,6.90
2023-03-05T04:27:42.468Z,7.02
2023-03-05T04:32:43.921Z,6.40
2023-03-05T04:37:45.379Z,6.53
2023-03-05T04:42:46.845Z,6.77
2023-03-05T04:47:48.321Z,6.92
2023-03-05T04:52:49.781Z,6.93
2023-03-05T04:57:51.253Z,6.77
2023-03-05T05:02:52.897Z,6.90
2023-03-05T05:07:57.732Z,6.78
2023-03-05T05:12:59.202Z,6.70
2023-03-05T05:18:00.673Z,6.37
2023-03-05T05:23:02.156Z,6.50
2023-03-05T05:28:03.763Z,6.31
2023-03-05T05:33:05.208Z,6.25
2023-03-05T05:38:06.658Z,6.62
2023-03-05T05:43:08.452Z,6.47
2023-03-05T05:48:09.943Z,6.73
2023-03-05T05:53:11.403Z,6.51
2023-03-05T05:58:12.873Z,6.43
2023-03-05T06:03:14.547Z,6.60
2023-03-05T06:08:16.233Z,6.79
2023-03-05T06:13:17.816Z,7.23
2023-03-05T06:18:19.290Z,6.64
2023-03-05T06:23:20.802Z,6.78
2023-03-05T06:28:22.285Z,6.68
2023-03-05T06:33:25.193Z,7.04
2023-03-05T06:38:26.707Z,6.75
2023-03-05T06:43:28.191Z,6.76
2023-03-05T06:48:29.661Z,6.80
2023-03-05T06:53:31.252Z,6.98
2023-03-05T06:58:32.719Z,6.94
2023-03-05T07:03:35.209Z,7.15
2023-03-05T07:08:36.942Z,7.29
2023-03-05T07:13:38.502Z,7.46
2023-03-05T07:18:40.075Z,7.38
2023-03-05T07:23:41.561Z,7.59
2023-03-05T07:28:43.049Z,7.53
2023-03-05T07:33:45.411Z,7.23
2023-03-05T07:38:46.893Z,7.46
2023-03-05T07:43:48.630Z,7.15
2023-03-05T07:48:50.122Z,7.40
2023-03-05T07:53:52.095Z,7.69
2023-03-05T07:58:53.578Z,7.59
2023-03-05T08:03:55.119Z,7.97
2023-03-05T08:08:57.274Z,8.03
2023-03-05T08:13:59.460Z,8.03
2023-03-05T08:19:01.085Z,8.55
2023-03-05T08:24:07.129Z,8.39
2023-03-05T08:29:08.702Z,8.90
2023-03-05T08:34:10.159Z,9.08
2023-03-05T08:39:11.682Z,8.58
2023-03-05T08:44:13.183Z,8.39
2023-03-05T08:49:14.647Z,8.06
2023-03-05T08:54:16.113Z,7.92
2023-03-05T08:59:17.575Z,8.07
2023-03-05T09:04:19.098Z,8.41
2023-03-05T09:09:23.230Z,8.46
2023-03-05T09:14:24.718Z,8.09
2023-03-05T09:19:27.464Z,8.59
2023-03-05T09:24:28.959Z,8.61
2023-03-05T09:29:31.369Z,8.75
2023-03-05T09:34:34.521Z,8.55
2023-03-05T09:39:36.379Z,8.32
2023-03-05T09:44:46.873Z,8.27
2023-03-05T09:49:59.879Z,8.38
2023-03-05T09:55:01.492Z,8.24
2023-03-05T10:00:12.559Z,8.46
2023-03-05T10:05:25.142Z,8.51
2023-03-05T10:10:28.530Z,8.61
2023-03-05T10:15:39.252Z,8.54
2023-03-05T10:21:12.999Z,9.05
2023-03-05T10:26:41.915Z,9.04
2023-03-05T10:31:50.234Z,9.15
2023-03-05T10:37:17.578Z,9.29
2023-03-05T10:42:34.272Z,9.18
2023-03-05T10:47:48.689Z,9.29
2023-03-05T10:52:55.360Z,9.65
2023-03-05T10:57:56.832Z,9.71
2023-03-05T11:03:00.451Z,9.61
2023-03-05T11:08:10.047Z,9.70
2023-03-05T11:13:27.501Z,9.65
2023-03-05T11:18:34.260Z,9.64
2023-03-05T11:23:35.841Z,9.57
2023-03-05T11:28:40.503Z,9.66
2023-03-05T11:34:08.277Z,10.04
2023-03-05T11:39:09.768Z,9.88
2023-03-05T11:44:27.451Z,10.15
2023-03-05T11:49:29.876Z,9.95
2023-03-05T11:54:36.722Z,9.87
2023-03-05T11:59:40.243Z,10.14
2023-03-05T12:04:41.780Z,10.25
2023-03-05T12:09:46.696Z,10.32
2023-03-05T12:14:58.214Z,10.50
2023-03-05T12:20:06.505Z,10.70
2023-03-05T12:25:46.809Z,10.86
2023-03-05T12:30:48.131Z,10.80
2023-03-05T12:35:49.680Z,10.44
2023-03-05T12:40:51.175Z,10.38
2023-03-05T12:45:53.149Z,10.36
2023-03-05T12:50:58.224Z,10.07
2023-03-05T12:56:12.653Z,10.03
2023-03-05T13:01:43.500Z,10.28
2023-03-05T13:06:45.130Z,9.91
2023-03-05T13:11:48.433Z,9.92
2023-03-05T13:16:49.993Z,9.83
2023-03-05T13:22:04.254Z,9.81
2023-03-05T13:27:29.090Z,10.02
2023-03-05T13:32:32.036Z,10.23
2023-03-05T13:37:34.563Z,10.10
2023-03-05T13:42:36.769Z,10.12
2023-03-05T13:47:38.246Z,10.08
2023-03-05T13:52:39.710Z,9.78
2023-03-05T13:57:42.756Z,9.67
2023-03-05T14:02:44.399Z,9.42
2023-03-05T14:07:48.418Z,9.55
2023-03-05T14:12:50.140Z,9.52
2023-03-05T14:17:51.749Z,9.38
2023-03-05T14:22:57.829Z,9.45
2023-03-05T14:27:59.682Z,9.42
2023-03-05T14:33:01.168Z,9.22
2023-03-05T14:38:02.713Z,9.36
2023-03-05T14:43:05.320Z,9.10
2023-03-05T14:48:07.520Z,8.99
2023-03-05T14:53:10.735Z,8.97
2023-03-05T14:58:21.992Z,8.80
2023-03-05T15:03:23.624Z,8.55
2023-03-05T15:08:29.654Z,8.83
2023-03-05T15:13:31.723Z,8.97
2023-03-05T15:18:33.217Z,8.85
2023-03-05T15:23:38.059Z,9.18
2023-03-05T15:28:39.827Z,9.43
2023-03-05T15:33:41.835Z,9.28
2023-03-05T15:38:43.452Z,9.50
2023-03-05T15:43:44.947Z,9.54
2023-03-05T15:48:49.923Z,9.61
2023-03-05T15:53:51.397Z,9.71
2023-03-05T15:58:53.101Z,9.17
2023-03-05T16:03:54.620Z,9.26
2023-03-05T16:08:59.961Z,9.31
2023-03-05T16:14:06.446Z,9.41
2023-03-05T16:19:08.465Z,9.41
2023-03-05T16:24:09.927Z,9.21
2023-03-05T16:29:11.432Z,9.37
2023-03-05T16:34:14.138Z,9.43
2023-03-05T16:39:15.651Z,9.54
2023-03-05T16:44:17.141Z,9.73
2023-03-05T16:49:18.648Z,9.76
2023-03-05T16:54:21.861Z,10.02
2023-03-05T16:59:24.011Z,10.13
2023-03-05T17:04:25.538Z,10.30
2023-03-05T17:09:27.079Z,10.35
2023-03-05T17:14:28.580Z,10.22
2023-03-05T17:19:30.064Z,9.71
2023-03-05T17:24:32.883Z,9.46
2023-03-05T17:29:34.406Z,9.22
2023-03-05T17:34:37.098Z,7.87
2023-03-05T17:39:38.921Z,7.28
2023-03-05T17:44:40.376Z,6.80
2023-03-05T17:49:41.849Z,6.83
2023-03-05T17:54:43.299Z,6.56
2023-03-05T17:59:44.799Z,5.63
2023-03-05T18:04:47.881Z,6.26
2023-03-05T18:09:49.390Z,6.58
2023-03-05T18:14:50.889Z,6.99
2023-03-05T18:19:52.398Z,6.99
2023-03-05T18:24:54.011Z,7.08
2023-03-05T18:29:55.564Z,6.99
2023-03-05T18:34:57.047Z,7.31
2023-03-05T18:39:59.019Z,7.29
2023-03-05T18:45:01.194Z,7.35
2023-03-05T18:50:02.695Z,7.57
2023-03-05T18:55:04.399Z,7.40
2023-03-05T19:00:06.547Z,7.39
2023-03-05T19:05:08.362Z,7.53
2023-03-05T19:10:11.234Z,7.88
2023-03-05T19:15:13.006Z,7.41
2023-03-05T19:20:15.883Z,6.65
2023-03-05T19:25:17.490Z,7.85
2023-03-05T19:30:19.110Z,7.65
2023-03-05T19:35:20.682Z,7.62
2023-03-05T19:40:22.493Z,7.44
2023-03-05T19:45:23.974Z,7.53
2023-03-05T19:50:25.454Z,7.21
2023-03-05T19:55:26.999Z,7.99
2023-03-05T20:00:28.737Z,8.17
2023-03-05T20:05:30.229Z,8.15
2023-03-05T20:10:31.762Z,7.70
2023-03-05T20:15:33.269Z,7.88
2023-03-05T20:20:34.783Z,8.22
2023-03-05T20:25:38.143Z,8.47
2023-03-05T20:30:39.793Z,8.53
2023-03-05T20:35:41.356Z,8.65
2023-03-05T20:40:42.857Z,8.65
2023-03-05T20:45:44.372Z,8.70
2023-03-05T20:50:47.036Z,8.36
2023-03-05T20:55:48.587Z,7.99
2023-03-05T21:00:50.119Z,7.88
2023-03-05T21:05:51.671Z,7.75
2023-03-05T21:10:53.151Z,7.83
2023-03-05T21:15:54.740Z,7.57
2023-03-05T21:20:56.235Z,7.62
2023-03-05T21:25:57.765Z,7.75
2023-03-05T21:31:05.353Z,7.67
2023-03-05T21:36:07.649Z,7.79
2023-03-05T21:41:09.833Z,7.93
2023-03-05T21:46:11.392Z,7.90
2023-03-05T21:51:13.726Z,7.71
2023-03-05T21:56:15.662Z,7.55
2023-03-05T22:01:19.356Z,7.76
2023-03-05T22:06:21.016Z,7.61
2023-03-05T22:11:22.528Z,7.40
2023-03-05T22:16:25.379Z,7.39
2023-03-05T22:21:27.420Z,7.47
2023-03-05T22:26:39.163Z,7.12
2023-03-05T22:31:40.697Z,7.05
2023-03-05T22:36:42.202Z,7.32
2023-03-05T22:41:43.676Z,7.30
2023-03-05T22:46:45.165Z,7.49
2023-03-05T22:51:46.701Z,7.53
2023-03-05T22:56:48.177Z,7.23
2023-03-05T23:01:49.649Z,7.30
2023-03-05T23:06:51.157Z,7.21
2023-03-05T23:11:52.641Z,7.52
2023-03-05T23:16:54.119Z,7.27
2023-03-05T23:21:55.620Z,7.43
2023-03-05T23:26:57.143Z,7.63
2023-03-05T23:31:58.623Z,7.21
2023-03-05T23:37:00.289Z,7.17
2023-03-05T23:42:01.767Z,7.70
2023-03-05T23:47:03.271Z,7.50
2023-03-05T23:52:04.854Z,7.50
2023-03-05T23:57:06.351Z,7.32
